Time;durP1;ratioP1;P1;durP2;ratioP2;P2;SDS_P1;SDS_P2;PMS_P1;PMS_P2;Temp;Humidity;BMP_temperature;BMP_pressure;BME280_temperature;BME280_humidity;BME280_pressure;Samples;Min_cycle;Max_cycle;Signal;HPM_P1;HPM_P2
2022/05/17 00:02:05;;;;;;;3.83;2.33;;;;;;;11.88;100.00;100819.55;1741485;82;21011;-89
2022/05/17 00:04:33;;;;;;;3.75;2.42;;;;;;;11.88;100.00;100822.16;1740086;82;21121;-90
2022/05/17 00:07:04;;;;;;;3.25;2.30;;;;;;;11.89;100.00;100821.21;1740753;82;21161;-90
2022/05/17 00:09:32;;;;;;;2.90;2.60;;;;;;;11.89;100.00;100818.14;1737435;82;21062;-91
2022/05/17 00:12:00;;;;;;;3.65;2.42;;;;;;;11.93;100.00;100820.86;1731689;82;21074;-90
2022/05/17 00:14:28;;;;;;;3.33;2.37;;;;;;;11.97;100.00;100822.33;1732073;82;21531;-90
2022/05/17 00:16:56;;;;;;;3.67;2.60;;;;;;;11.97;100.00;100824.94;1731954;82;21050;-89
2022/05/17 00:19:24;;;;;;;4.60;2.83;;;;;;;11.95;100.00;100822.88;1732010;82;21154;-91
2022/05/17 00:21:53;;;;;;;3.30;2.50;;;;;;;11.94;100.00;100826.44;1731995;82;21114;-90
2022/05/17 00:24:23;;;;;;;3.00;2.67;;;;;;;11.94;100.00;100823.83;1731909;82;21583;-89
2022/05/17 00:26:52;;;;;;;2.70;2.40;;;;;;;11.93;100.00;100823.95;1731975;82;21078;-91
2022/05/17 00:29:20;;;;;;;4.45;2.55;;;;;;;11.87;100.00;100821.34;1745688;81;21623;-92
2022/05/17 00:31:47;;;;;;;4.83;2.50;;;;;;;11.79;100.00;100826.32;1745541;81;22049;-90
2022/05/17 00:34:15;;;;;;;4.12;2.30;;;;;;;11.71;100.00;100832.59;1746055;81;21081;-89
2022/05/17 00:36:42;;;;;;;4.03;2.37;;;;;;;11.63;100.00;100831.41;1745660;81;21062;-90
2022/05/17 00:39:09;;;;;;;4.33;2.35;;;;;;;11.59;100.00;100828.66;1746118;81;20987;-90
2022/05/17 00:41:36;;;;;;;3.25;2.15;;;;;;;11.56;100.00;100834.13;1745802;81;21053;-91
2022/05/17 00:47:19;;;;;;;3.35;2.30;;;;;;;11.48;100.00;100836.00;1745686;82;21037;-91
2022/05/17 00:50:12;;;;;;;3.62;2.27;;;;;;;11.44;100.00;100837.19;1745686;81;21055;-91
2022/05/17 00:52:53;;;;;;;2.60;2.20;;;;;;;11.40;100.00;100837.53;1741185;81;21030;-91
2022/05/17 00:55:26;;;;;;;4.83;2.35;;;;;;;11.32;100.00;100837.64;1742487;81;21125;-90
2022/05/17 00:58:03;;;;;;;2.67;2.15;;;;;;;11.30;100.00;100836.91;1744831;81;21095;-88
2022/05/17 01:00:35;;;;;;;3.27;2.40;;;;;;;11.28;100.00;100838.80;1738676;82;21192;-87
2022/05/17 01:03:07;;;;;;;4.58;2.25;;;;;;;11.23;100.00;100832.26;1738609;81;21582;-89
2022/05/17 01:05:43;;;;;;;2.72;2.27;;;;;;;11.19;100.00;100836.41;1745449;81;21670;-89
2022/05/17 01:08:14;;;;;;;2.45;2.25;;;;;;;11.15;100.00;100832.36;1745823;81;21203;-86
2022/05/17 01:10:42;;;;;;;4.78;2.20;;;;;;;11.17;100.00;100834.39;1752668;81;21822;-89
2022/05/17 01:15:55;;;;;;;3.00;2.08;;;;;;;11.15;100.00;100835.45;1754902;81;21662;-89
2022/05/17 01:18:23;;;;;;;7.30;1.80;;;;;;;11.13;100.00;100842.09;1754930;81;21053;-89
2022/05/17 01:20:50;;;;;;;3.15;1.75;;;;;;;11.10;100.00;100837.55;1755396;81;21092;-91
2022/05/17 01:23:18;;;;;;;2.98;1.72;;;;;;;11.07;100.00;100846.43;1755024;81;21228;-91
2022/05/17 01:25:45;;;;;;;2.05;1.65;;;;;;;11.04;100.00;100843.58;1755066;81;21155;-90
2022/05/17 01:28:18;;;;;;;5.35;1.90;;;;;;;11.03;100.00;100837.19;1755042;81;21089;-92
2022/05/17 01:30:46;;;;;;;2.27;1.80;;;;;;;11.01;100.00;100841.22;1747286;81;21621;-91
2022/05/17 01:33:17;;;;;;;4.90;2.17;;;;;;;10.99;100.00;100844.41;1754940;81;21592;-91
2022/05/17 01:35:45;;;;;;;3.58;2.35;;;;;;;10.95;100.00;100839.04;1754963;81;21295;-88
2022/05/17 01:38:13;;;;;;;2.72;1.77;;;;;;;10.94;100.00;100837.86;1754490;81;21018;-90
2022/05/17 01:40:40;;;;;;;3.75;1.75;;;;;;;10.92;100.00;100835.38;1755025;81;21037;-90
2022/05/17 01:43:08;;;;;;;2.55;1.82;;;;;;;10.92;100.00;100835.38;1754710;81;21061;-90
2022/05/17 01:45:35;;;;;;;3.50;1.85;;;;;;;10.91;100.00;100844.13;1755370;81;21572;-91
2022/05/17 01:48:05;;;;;;;2.87;1.80;;;;;;;10.89;100.00;100838.19;1755072;81;21101;-90
2022/05/17 01:50:34;;;;;;;3.15;1.85;;;;;;;10.85;100.00;100842.80;1720789;81;21015;-92
2022/05/17 01:53:01;;;;;;;5.05;2.02;;;;;;;10.83;100.00;100847.28;1755073;81;21081;-94
2022/05/17 01:55:28;;;;;;;3.90;2.10;;;;;;;10.80;100.00;100844.91;1755201;81;21500;-91
2022/05/17 01:57:55;;;;;;;2.08;1.90;;;;;;;10.79;100.00;100847.61;1754879;81;21101;-91
2022/05/17 02:00:25;;;;;;;1.92;1.70;;;;;;;10.76;100.00;100846.55;1755399;81;22053;-89
2022/05/17 02:09:59;;;;;;;7.35;2.67;;;;;;;10.89;100.00;100839.04;1752862;81;21065;-90
2022/05/17 02:12:34;;;;;;;5.47;2.27;;;;;;;10.83;100.00;100847.77;1745215;81;20983;-89
2022/05/17 02:15:07;;;;;;;5.87;2.30;;;;;;;10.78;100.00;100848.55;1745217;82;21156;-89
2022/05/17 02:17:35;;;;;;;4.87;2.55;;;;;;;10.70;100.00;100852.54;1745431;82;21019;-89
2022/05/17 02:20:05;;;;;;;4.97;1.85;;;;;;;10.65;100.00;100850.75;1745743;81;20991;-89
2022/05/17 02:22:32;;;;;;;2.72;1.85;;;;;;;10.61;100.00;100850.63;1745358;81;21093;-89
2022/05/17 02:25:00;;;;;;;3.08;1.95;;;;;;;10.59;100.00;100855.10;1745263;82;21152;-90
2022/05/17 02:27:27;;;;;;;6.03;1.80;;;;;;;10.57;100.00;100856.97;1745299;81;21190;-90
2022/05/17 02:29:56;;;;;;;2.90;1.70;;;;;;;10.56;100.00;100856.61;1745021;81;21622;-89
2022/05/17 02:32:25;;;;;;;3.30;2.00;;;;;;;10.65;100.00;100852.53;1745539;81;20995;-89
2022/05/17 02:34:53;;;;;;;3.50;1.50;;;;;;;10.78;100.00;100857.21;1745484;82;21571;-90
2022/05/17 02:37:20;;;;;;;3.15;1.55;;;;;;;10.89;100.00;100855.13;1745660;81;21073;-89
2022/05/17 02:39:47;;;;;;;4.00;1.72;;;;;;;11.01;100.00;100860.77;1745489;82;21846;-91
2022/05/17 02:42:15;;;;;;;7.75;1.80;;;;;;;11.13;100.00;100859.03;1745284;81;21046;-91
2022/05/17 02:44:43;;;;;;;2.72;1.60;;;;;;;11.23;100.00;100855.72;1745405;81;21544;-90
2022/05/17 02:47:11;;;;;;;3.42;1.50;;;;;;;11.27;100.00;100855.38;1745358;81;20968;-91
2022/05/17 02:49:40;;;;;;;1.60;1.32;;;;;;;11.30;100.00;100856.92;1745408;81;21089;-90
2022/05/17 02:52:08;;;;;;;3.45;1.60;;;;;;;11.26;100.00;100861.53;1745850;81;21733;-89
2022/05/17 02:54:35;;;;;;;3.33;1.50;;;;;;;11.19;100.00;100865.09;1745474;81;21476;-88
2022/05/17 02:57:05;;;;;;;1.57;1.47;;;;;;;11.20;100.00;100859.39;1745870;81;21101;-90
2022/05/17 02:59:33;;;;;;;6.72;2.52;;;;;;;11.22;100.00;100860.11;1745591;81;21105;-90
2022/05/17 03:02:00;;;;;;;8.30;3.05;;;;;;;11.23;100.00;100859.17;1745720;81;21109;-90
2022/05/17 03:04:28;;;;;;;9.25;4.10;;;;;;;11.23;100.00;100861.78;1745936;81;21241;-89
2022/05/17 03:06:57;;;;;;;8.93;4.10;;;;;;;11.27;100.00;100859.78;1742183;81;21046;-89
2022/05/17 03:09:25;;;;;;;14.00;4.62;;;;;;;11.25;100.00;100855.98;1745580;82;21093;-88
2022/05/17 03:11:52;;;;;;;10.88;4.90;;;;;;;11.23;100.00;100865.69;1754117;81;21516;-88
2022/05/17 03:14:21;;;;;;;9.30;5.00;;;;;;;11.19;100.00;100865.55;1754823;81;21045;-88
2022/05/17 03:16:49;;;;;;;14.93;5.00;;;;;;;11.15;100.00;100867.55;1755265;81;21112;-88
2022/05/17 03:19:18;;;;;;;13.18;4.80;;;;;;;11.16;100.00;100868.39;1754808;81;21087;-91
2022/05/17 03:21:48;;;;;;;11.15;3.90;;;;;;;11.19;100.00;100865.09;1754975;81;21050;-89
2022/05/17 03:24:16;;;;;;;8.70;3.83;;;;;;;11.22;100.00;100860.11;1755228;81;21504;-90
2022/05/17 03:26:43;;;;;;;8.25;3.45;;;;;;;11.19;100.00;100870.30;1754830;81;21073;-87
2022/05/17 03:29:10;;;;;;;9.38;3.35;;;;;;;11.13;100.00;100871.22;1755109;81;21158;-90
2022/05/17 03:31:37;;;;;;;8.83;3.00;;;;;;;11.01;100.00;100868.58;1754832;81;21030;-91
2022/05/17 03:34:04;;;;;;;6.83;3.02;;;;;;;10.90;100.00;100868.52;1755168;81;21010;-89
2022/05/17 03:36:31;;;;;;;9.48;2.90;;;;;;;10.82;100.00;100867.75;1755188;81;20974;-91
2022/05/17 03:38:59;;;;;;;6.58;2.47;;;;;;;10.82;100.00;100865.64;1754947;81;21037;-89
2022/05/17 03:41:35;;;;;;;6.65;2.45;;;;;;;10.86;100.00;100863.16;1755137;81;21152;-88
2022/05/17 03:44:04;;;;;;;4.58;2.02;;;;;;;10.96;100.00;100865.45;1748094;81;21479;-89
2022/05/17 03:46:32;;;;;;;5.90;2.10;;;;;;;11.11;100.00;100864.82;1754877;81;21038;-90
2022/05/17 03:49:02;;;;;;;3.20;1.92;;;;;;;11.26;100.00;100862.02;1755197;81;21191;-88
2022/05/17 03:51:30;;;;;;;4.17;1.65;;;;;;;11.39;100.00;100861.94;1755316;81;21132;-88
2022/05/17 03:53:57;;;;;;;4.05;1.60;;;;;;;11.48;100.00;100855.55;1754739;81;21052;-91
2022/05/17 03:56:24;;;;;;;3.22;1.82;;;;;;;11.54;100.00;100858.67;1755017;81;20990;-90
2022/05/17 03:58:52;;;;;;;5.75;1.90;;;;;;;11.56;100.00;100853.69;1755281;81;21515;-87
2022/05/17 04:01:19;;;;;;;3.17;1.70;;;;;;;11.57;100.00;100853.20;1755342;81;21042;-89
2022/05/17 04:03:46;;;;;;;3.10;1.60;;;;;;;11.55;100.00;100847.27;1754949;81;21089;-89
2022/05/17 04:06:14;;;;;;;4.25;1.80;;;;;;;11.57;100.00;100850.14;1754923;81;21259;-89
2022/05/17 04:08:41;;;;;;;5.60;1.98;;;;;;;11.66;100.00;100848.59;1755141;81;21017;-88
2022/05/17 04:11:08;;;;;;;6.80;2.42;;;;;;;11.81;100.00;100851.34;1750158;81;21061;-89
2022/05/17 04:13:35;;;;;;;7.00;2.40;;;;;;;11.95;100.00;100848.98;1737627;81;21453;-90
2022/05/17 04:16:04;;;;;;;3.77;2.65;;;;;;;12.11;100.00;100849.12;1807291;79;21621;-90
2022/05/17 04:18:31;;;;;;;10.40;3.15;;;;;;;12.24;100.00;100847.20;1809666;79;21190;-89
2022/05/17 04:21:02;;;;;;;6.17;2.50;;;;;;;12.37;100.00;100844.45;1814807;79;21471;-90
2022/05/17 04:23:30;;;;;;;4.78;2.55;;;;;;;12.48;100.00;100846.21;1815105;78;21527;-90
2022/05/17 04:25:58;;;;;;;11.28;3.77;;;;;;;12.58;97.29;100853.67;1815090;78;21037;-90
2022/05/17 04:28:25;;;;;;;8.63;3.15;;;;;;;12.65;90.14;100850.56;1815423;79;21049;-91
2022/05/17 04:30:52;;;;;;;7.08;3.20;;;;;;;12.69;90.23;100855.91;1815383;79;21117;-90
2022/05/17 04:33:21;;;;;;;6.55;3.77;;;;;;;12.74;100.00;100851.95;1815106;79;21058;-90
2022/05/17 04:35:48;;;;;;;8.15;3.72;;;;;;;12.84;98.05;100853.83;1814980;79;21088;-91
2022/05/17 04:38:17;;;;;;;8.23;3.95;;;;;;;12.94;100.00;100852.13;1815010;79;20963;-94
2022/05/17 04:40:45;;;;;;;12.35;3.35;;;;;;;13.07;100.00;100851.97;1814820;78;21014;-91
2022/05/17 04:43:15;;;;;;;7.60;3.37;;;;;;;13.20;100.00;100846.56;1815202;79;21217;-90
2022/05/17 04:45:51;;;;;;;7.95;3.10;;;;;;;13.28;91.71;100852.45;1813861;78;21030;-92
2022/05/17 04:48:19;;;;;;;5.60;2.30;;;;;;;13.38;100.00;100856.81;1815246;79;21073;-92
2022/05/17 04:50:46;;;;;;;4.12;2.10;;;;;;;13.47;99.13;100852.61;1814821;79;21013;-91
2022/05/17 04:53:13;;;;;;;4.08;2.25;;;;;;;13.59;92.85;100846.83;1814823;78;21534;-91
2022/05/17 04:55:42;;;;;;;5.80;2.17;;;;;;;13.71;92.83;100842.34;1811092;78;21227;-92
2022/05/17 04:58:12;;;;;;;2.98;1.45;;;;;;;13.80;84.81;100844.19;1810415;79;21054;-91
2022/05/17 05:00:40;;;;;;;3.67;1.32;;;;;;;13.91;90.75;100843.72;1747117;81;21144;-93
2022/05/17 05:03:12;;;;;;;3.05;1.40;;;;;;;13.99;85.47;100849.13;1716771;83;21081;-90
2022/05/17 05:05:39;;;;;;;2.85;1.07;;;;;;;14.10;86.37;100852.98;1748362;82;21093;-92
2022/05/17 05:08:17;;;;;;;2.05;0.80;;;;;;;14.20;78.76;100850.37;1794497;78;21147;-92
2022/05/17 05:10:45;;;;;;;1.90;1.00;;;;;;;14.28;74.10;100853.16;1815090;79;21184;-91
2022/05/17 05:13:18;;;;;;;3.90;0.90;;;;;;;14.36;74.83;100845.46;1806631;79;21570;-92
2022/05/17 05:15:47;;;;;;;2.85;0.80;;;;;;;14.45;71.73;100852.16;1804683;78;20959;-92
2022/05/17 05:18:15;;;;;;;4.12;1.10;;;;;;;14.55;69.61;100850.87;1810319;79;21513;-94
2022/05/17 05:20:44;;;;;;;2.37;0.80;;;;;;;14.59;61.70;100849.15;1782172;79;21160;-90
2022/05/17 05:23:12;;;;;;;2.10;0.78;;;;;;;14.66;68.36;100851.60;1814963;79;21032;-91
2022/05/17 05:25:42;;;;;;;2.83;1.07;;;;;;;14.73;65.58;100851.89;1811512;79;21077;-90
2022/05/17 05:28:10;;;;;;;2.58;1.00;;;;;;;14.73;72.30;100845.34;1804736;78;21527;-94
2022/05/17 05:30:38;;;;;;;3.45;1.35;;;;;;;14.73;72.67;100850.59;1804930;78;21018;-90
2022/05/17 05:33:06;;;;;;;4.15;1.10;;;;;;;14.74;68.77;100842.26;1804781;79;21227;-89
2022/05/17 05:35:33;;;;;;;3.70;0.98;;;;;;;14.73;62.43;100844.03;1804599;78;21038;-90
2022/05/17 05:38:03;;;;;;;3.22;1.12;;;;;;;14.74;60.33;100841.77;1804607;78;21038;-90
2022/05/17 05:40:31;;;;;;;2.17;1.12;;;;;;;14.76;58.07;100849.02;1805036;79;28252;-93
2022/05/17 05:42:58;;;;;;;1.87;0.85;;;;;;;14.80;62.79;100846.94;1795266;78;21062;-90
2022/05/17 05:45:26;;;;;;;1.05;0.80;;;;;;;14.91;60.57;100846.79;1798476;78;21073;-92
2022/05/17 05:47:54;;;;;;;1.32;0.90;;;;;;;15.07;60.93;100847.56;1815124;79;21577;-92
2022/05/17 05:50:21;;;;;;;2.02;0.75;;;;;;;15.08;58.10;100844.44;1815087;79;21565;-90
2022/05/17 05:52:49;;;;;;;2.55;1.35;;;;;;;14.93;58.01;100844.05;1814869;79;21073;-93
2022/05/17 05:55:21;;;;;;;1.95;1.00;;;;;;;14.90;57.00;100837.77;1787750;79;21565;-89
2022/05/17 05:57:49;;;;;;;2.27;1.05;;;;;;;14.96;62.30;100841.13;1782864;79;21859;-90
2022/05/17 06:00:21;;;;;;;3.85;1.15;;;;;;;15.08;62.62;100836.11;1790765;79;21112;-91
2022/05/17 06:02:52;;;;;;;2.42;1.60;;;;;;;15.25;63.75;100827.19;1791071;79;21000;-88
2022/05/17 06:05:22;;;;;;;4.97;1.12;;;;;;;15.40;61.73;100833.64;1807024;77;21030;-92
2022/05/17 06:07:50;;;;;;;1.37;0.80;;;;;;;15.54;57.75;100831.52;1815002;79;21089;-92
2022/05/17 06:10:20;;;;;;;2.62;1.20;;;;;;;15.60;59.77;100825.70;1814852;79;21138;-91
2022/05/17 06:12:47;;;;;;;3.52;1.10;;;;;;;15.69;58.68;100837.97;1768509;79;20995;-90
2022/05/17 06:15:23;;;;;;;3.17;1.10;;;;;;;15.76;60.35;100834.29;1796557;79;21030;-91
2022/05/17 06:17:45;;;;;;;2.87;1.00;;;;;;;15.82;55.97;100830.27;1795242;79;21041;-89
2022/05/17 06:20:19;;;;;;;1.65;0.82;;;;;;;15.86;55.69;100833.80;1791861;78;21028;-90
2022/05/17 06:22:47;;;;;;;3.25;1.05;;;;;;;15.93;55.75;100827.47;1784980;78;21618;-92
2022/05/17 06:25:16;;;;;;;2.40;1.05;;;;;;;15.95;53.74;100831.25;1793799;78;21040;-91
2022/05/17 06:27:45;;;;;;;5.87;1.10;;;;;;;16.00;53.95;100826.41;1796809;78;21032;-89
2022/05/17 06:30:13;;;;;;;2.25;1.10;;;;;;;16.07;54.89;100822.23;1774768;78;21482;-88
2022/05/17 06:32:41;;;;;;;2.77;1.22;;;;;;;16.07;54.53;100821.73;1796689;79;21662;-90
2022/05/17 06:35:12;;;;;;;2.90;1.00;;;;;;;16.08;55.90;100819.44;1796337;79;21101;-90
2022/05/17 06:37:39;;;;;;;1.52;0.72;;;;;;;16.13;53.82;100818.19;1791079;78;21581;-88
2022/05/17 06:40:13;;;;;;;3.87;0.90;;;;;;;16.14;52.29;100822.48;1788764;78;21144;-89
2022/05/17 06:42:45;;;;;;;2.37;0.98;;;;;;;16.19;52.28;100818.91;1801784;78;20994;-87
2022/05/17 06:45:15;;;;;;;3.87;1.00;;;;;;;16.26;50.69;100816.53;1808109;78;20970;-89
2022/05/17 06:47:45;;;;;;;1.62;1.02;;;;;;;16.28;51.90;100818.50;1807820;78;21340;-90
2022/05/17 06:50:14;;;;;;;3.00;0.93;;;;;;;16.30;55.21;100821.34;1775719;79;21037;-89
2022/05/17 06:52:44;;;;;;;2.00;0.88;;;;;;;16.34;52.17;100812.17;1811472;77;20996;-89
2022/05/17 06:55:13;;;;;;;2.80;0.90;;;;;;;16.33;51.70;100813.65;1795766;78;21551;-89
2022/05/17 06:57:45;;;;;;;2.58;0.80;;;;;;;16.40;53.39;100810.27;1789490;78;20984;-89
2022/05/17 07:00:15;;;;;;;1.62;1.10;;;;;;;16.58;52.76;100813.39;1796570;79;21256;-89
2022/05/17 07:02:43;;;;;;;2.35;1.10;;;;;;;16.66;52.37;100809.53;1766034;79;21125;-90
2022/05/17 07:05:15;;;;;;;1.72;0.53;;;;;;;16.69;51.79;100812.34;1796823;78;20982;-90
2022/05/17 07:07:48;;;;;;;1.40;1.20;;;;;;;16.74;54.52;100806.16;1805002;78;21071;-89
2022/05/17 07:13:09;;;;;;;1.02;0.82;;;;;;;16.76;52.05;100812.07;1795726;79;21111;-87
2022/05/17 07:15:44;;;;;;;3.72;2.25;;;;;;;16.83;58.60;100801.78;1723392;82;21122;-89
2022/05/17 07:18:14;;;;;;;1.25;0.82;;;;;;;16.93;53.34;100807.83;1743717;81;21034;-90
2022/05/17 07:20:43;;;;;;;3.45;0.85;;;;;;;16.87;51.33;100798.70;1743593;81;21612;-87
2022/05/17 07:23:12;;;;;;;0.68;0.68;;;;;;;16.90;56.41;100795.44;1743270;80;21078;-89
2022/05/17 07:25:40;;;;;;;1.47;0.60;;;;;;;17.05;51.98;100793.09;1768247;80;21713;-90
2022/05/17 07:28:11;;;;;;;0.78;0.60;;;;;;;17.15;50.66;100787.25;1735712;82;21039;-90
2022/05/17 07:30:44;;;;;;;1.32;0.78;;;;;;;17.22;53.56;100786.16;1748783;79;21093;-89
2022/05/17 07:33:12;;;;;;;2.52;0.93;;;;;;;17.29;56.22;100784.55;1725122;82;21492;-89
2022/05/17 07:35:40;;;;;;;1.15;0.72;;;;;;;17.43;52.15;100789.23;1737615;82;21543;-88
2022/05/17 07:38:08;;;;;;;2.33;0.82;;;;;;;17.57;51.88;100794.89;1737549;82;21236;-90
2022/05/17 07:40:36;;;;;;;1.32;0.70;;;;;;;17.66;53.21;100783.42;1738033;82;21031;-90
2022/05/17 07:43:12;;;;;;;1.37;0.70;;;;;;;17.73;52.25;100784.44;1748088;80;21008;-90
2022/05/17 07:45:39;;;;;;;2.27;1.05;;;;;;;17.82;50.49;100797.16;1757888;80;21092;-90
2022/05/17 07:48:07;;;;;;;2.75;0.72;;;;;;;17.72;48.19;100788.55;1758457;81;21071;-89
2022/05/17 07:50:36;;;;;;;1.47;0.90;;;;;;;17.56;49.11;100795.39;1710411;81;21313;-89
2022/05/17 07:53:09;;;;;;;1.42;0.80;;;;;;;17.41;45.49;100783.80;1755551;80;21046;-88
2022/05/17 07:55:39;;;;;;;2.65;0.75;;;;;;;17.33;49.79;100794.62;1751164;80;21042;-87
2022/05/17 07:58:07;;;;;;;1.12;0.75;;;;;;;17.49;49.26;100798.32;1757895;80;21054;-89
2022/05/17 08:00:34;;;;;;;1.27;0.80;;;;;;;17.63;51.82;100791.14;1732295;82;21031;-89
2022/05/17 08:03:04;;;;;;;4.45;1.00;;;;;;;17.72;48.05;100774.06;1762365;80;21133;-90
2022/05/17 08:05:33;;;;;;;1.00;0.80;;;;;;;17.72;49.90;100780.15;1750804;80;21550;-86
2022/05/17 08:08:00;;;;;;;0.95;0.62;;;;;;;17.69;48.92;100773.90;1747677;81;21116;-89
2022/05/17 08:10:28;;;;;;;1.92;0.70;;;;;;;17.75;47.15;100781.62;1751815;81;21014;-88
2022/05/17 08:12:57;;;;;;;2.45;0.90;;;;;;;17.77;49.66;100779.67;1747796;80;21057;-89
2022/05/17 08:15:27;;;;;;;1.42;0.70;;;;;;;17.62;45.89;100784.23;1741746;81;21423;-88
2022/05/17 08:17:55;;;;;;;3.95;1.45;;;;;;;17.39;49.47;100785.25;1735270;82;21594;-88
2022/05/17 08:20:24;;;;;;;0.80;0.80;;;;;;;17.34;46.38;100766.00;1729389;81;21080;-88
2022/05/17 08:22:58;;;;;;;1.52;1.15;;;;;;;17.37;48.61;100770.60;1743978;82;21562;-88
2022/05/17 08:28:11;;;;;;;0.88;0.88;;;;;;;17.46;51.27;100772.30;1743949;81;21439;-90
2022/05/17 08:30:40;;;;;;;1.57;0.90;;;;;;;17.66;49.62;100764.98;1712756;81;21069;-90
2022/05/17 08:33:17;;;;;;;1.40;0.80;;;;;;;17.78;48.21;100771.64;1775493;79;21018;-89
2022/05/17 08:35:58;;;;;;;1.47;0.72;;;;;;;17.81;49.83;100763.91;1775892;79;21102;-89
2022/05/17 08:38:29;;;;;;;3.37;0.90;;;;;;;17.91;52.46;100770.34;1786160;79;21555;-88
2022/05/17 08:41:18;;;;;;;1.35;0.80;;;;;;;18.14;47.17;100760.08;1786309;78;21121;-88
2022/05/17 08:44:08;;;;;;;1.45;0.98;;;;;;;18.35;47.27;100756.14;1782216;80;21055;-89
2022/05/17 08:47:05;;;;;;;1.25;0.90;;;;;;;18.45;49.39;100745.77;1798343;78;20989;-90
2022/05/17 08:49:45;;;;;;;2.35;1.05;;;;;;;18.46;47.72;100749.25;1776519;80;21043;-89
2022/05/17 08:52:19;;;;;;;1.65;0.70;;;;;;;18.29;42.63;100737.37;1783457;78;21023;-89
2022/05/17 08:55:13;;;;;;;0.70;0.70;;;;;;;18.13;49.99;100744.74;1766420;79;21940;-89
2022/05/17 08:57:46;;;;;;;0.75;0.57;;;;;;;18.06;46.66;100739.79;1758510;78;21159;-89
2022/05/17 09:00:27;;;;;;;1.87;0.70;;;;;;;17.89;48.13;100737.59;1802866;78;21038;-89
2022/05/17 09:03:03;;;;;;;;;;;;;;;17.73;50.64;100733.59;1785389;78;21039;-89
2022/05/17 09:05:50;;;;;;;2.25;0.70;;;;;;;17.75;48.45;100736.39;1792504;79;20179;-88
2022/05/17 09:09:05;;;;;;;1.95;0.70;;;;;;;17.96;52.29;100733.36;1795891;78;21162;-88
2022/05/17 09:11:48;;;;;;;1.20;0.80;;;;;;;18.41;51.36;100737.03;1775556;80;21050;-89
2022/05/17 09:14:26;;;;;;;5.65;1.00;;;;;;;18.67;47.85;100726.82;1767966;80;21428;-89
2022/05/17 09:17:14;;;;;;;2.17;1.02;;;;;;;18.56;46.06;100732.75;1736814;81;21634;-88
2022/05/17 09:19:43;;;;;;;1.72;0.90;;;;;;;18.27;46.61;100727.48;1768710;80;21006;-88
2022/05/17 09:22:11;;;;;;;1.17;0.80;;;;;;;18.12;47.96;100739.64;1777381;80;21244;-87
2022/05/17 09:24:45;;;;;;;0.80;0.80;;;;;;;18.12;46.81;100733.05;1776495;80;21044;-89
2022/05/17 09:27:29;;;;;;;2.52;0.88;;;;;;;18.08;45.82;100731.72;1755235;80;21677;-86
2022/05/17 09:30:10;;;;;;;1.05;0.78;;;;;;;18.05;45.33;100726.79;1746584;80;21519;-89
2022/05/17 09:33:05;;;;;;;1.70;0.80;;;;;;;18.10;44.68;100733.70;1773548;79;21499;-90
2022/05/17 09:35:56;;;;;;;2.77;0.82;;;;;;;18.21;45.26;100733.41;1748750;81;21212;-88
2022/05/17 09:38:30;;;;;;;1.92;0.98;;;;;;;17.96;46.48;100734.67;1753585;81;21014;-87
2022/05/17 09:41:00;;;;;;;2.05;0.80;;;;;;;17.88;47.45;100732.46;1774466;80;21975;-89
2022/05/17 09:43:58;;;;;;;1.27;0.90;;;;;;;18.00;47.95;100719.84;1779717;80;21081;-89
2022/05/17 09:46:35;;;;;;;1.10;1.00;;;;;;;18.24;43.73;100714.61;1752988;80;21084;-88
2022/05/17 09:52:46;;;;;;;0.72;0.70;;;;;;;18.15;47.38;100724.80;1776506;80;21061;-87
2022/05/17 09:55:29;;;;;;;1.15;1.05;;;;;;;17.89;45.24;100712.56;1753026;80;21003;-88
2022/05/17 09:58:33;;;;;;;1.77;0.70;;;;;;;17.56;46.78;100736.62;1774534;80;21021;-87
2022/05/17 10:01:09;;;;;;;1.30;0.90;;;;;;;17.37;47.86;100729.33;1754667;80;21093;-89
2022/05/17 10:03:40;;;;;;;1.12;0.70;;;;;;;17.44;50.68;100730.34;1759616;80;21160;-88
2022/05/17 10:06:16;;;;;;;2.42;0.82;;;;;;;17.83;51.19;100722.41;1757578;80;20962;-88
2022/05/17 10:09:05;;;;;;;2.98;0.80;;;;;;;18.37;50.58;100717.27;1723059;81;21512;-88
2022/05/17 10:11:57;;;;;;;1.15;0.80;;;;;;;18.88;50.88;100713.12;1761249;80;21714;-89
2022/05/17 10:14:44;;;;;;;1.10;1.00;;;;;;;19.27;47.69;100702.34;1796738;78;21008;-89
2022/05/17 10:17:17;;;;;;;0.80;0.80;;;;;;;19.59;47.53;100705.32;1789832;78;21158;-88
2022/05/17 10:20:00;;;;;;;2.05;0.93;;;;;;;19.80;48.45;100699.92;1794787;79;20976;-88
2022/05/17 10:22:59;;;;;;;1.82;0.90;;;;;;;19.93;44.31;100685.69;1799998;78;21028;-87
2022/05/17 10:25:52;;;;;;;2.52;0.90;;;;;;;20.07;44.21;100690.69;1814120;79;21049;-89
2022/05/17 10:28:34;;;;;;;2.52;1.00;;;;;;;20.13;45.64;100686.52;1781678;78;21111;-89
2022/05/17 10:31:24;;;;;;;3.70;1.27;;;;;;;20.23;42.44;100683.66;1781326;78;21552;-88
2022/05/17 10:34:09;;;;;;;1.35;1.10;;;;;;;20.20;45.31;100685.33;1756525;78;21027;-89
2022/05/17 10:36:45;;;;;;;1.32;1.10;;;;;;;20.06;40.62;100684.27;1794994;78;21690;-87
2022/05/17 10:39:24;;;;;;;1.02;0.93;;;;;;;19.94;41.01;100666.67;1809900;78;21039;-89
2022/05/17 10:41:55;;;;;;;3.72;1.20;;;;;;;19.73;43.38;100676.03;1822057;78;21084;-87
2022/05/17 10:44:28;;;;;;;1.02;0.90;;;;;;;19.45;42.29;100674.37;1811319;78;21048;-89
2022/05/17 10:47:01;;;;;;;1.72;1.10;;;;;;;19.18;40.96;100665.41;1813050;77;21471;-88
2022/05/17 10:49:42;;;;;;;2.47;1.10;;;;;;;18.91;43.81;100667.44;1786554;78;21034;-87
2022/05/17 10:52:24;;;;;;;0.95;0.80;;;;;;;18.73;43.65;100665.48;1812495;78;21068;-87
2022/05/17 10:55:03;;;;;;;2.20;1.20;;;;;;;18.57;43.83;100665.84;1799944;78;21051;-88
2022/05/17 10:57:57;;;;;;;1.37;1.00;;;;;;;18.42;45.31;100667.03;1729024;78;21143;-88
2022/05/17 11:00:47;;;;;;;1.10;0.90;;;;;;;18.29;44.22;100668.00;1823355;78;21108;-88
2022/05/17 11:03:38;;;;;;;1.40;0.93;;;;;;;18.49;43.65;100665.04;1817456;78;21094;-89
2022/05/17 11:06:23;;;;;;;1.57;0.80;;;;;;;18.99;41.93;100656.05;1797947;78;21082;-88
2022/05/17 11:09:15;;;;;;;1.22;0.90;;;;;;;19.47;42.60;100646.80;1805404;78;21020;-88
2022/05/17 11:12:09;;;;;;;4.03;0.93;;;;;;;19.74;38.46;100631.45;1810038;78;21144;-87
2022/05/17 11:14:50;;;;;;;0.90;0.90;;;;;;;19.86;39.66;100634.55;1771950;80;21043;-88
2022/05/17 11:17:38;;;;;;;;;;;;;;;19.77;38.95;100639.02;1796797;79;21041;-88
2022/05/17 11:20:31;;;;;;;1.90;0.93;;;;;;;19.64;37.36;100632.98;1792871;79;20234;-88
2022/05/17 11:23:49;;;;;;;1.72;0.93;;;;;;;19.44;34.58;100618.59;1779453;79;21138;-87
2022/05/17 11:26:37;;;;;;;0.95;0.90;;;;;;;19.34;37.99;100630.70;1783827;79;21619;-87
2022/05/17 11:29:39;;;;;;;1.65;0.80;;;;;;;19.36;38.24;100627.36;1792467;78;20988;-89
2022/05/17 11:32:33;;;;;;;1.82;1.00;;;;;;;19.31;37.23;100621.80;1767493;79;21455;-88
2022/05/17 11:35:31;;;;;;;2.72;1.12;;;;;;;19.42;37.80;100625.38;1795223;78;21060;-88
2022/05/17 11:38:07;;;;;;;1.57;1.12;;;;;;;19.69;38.45;100619.25;1793543;79;21066;-88
2022/05/17 11:40:53;;;;;;;3.17;1.00;;;;;;;20.03;38.10;100613.28;1789199;79;21307;-88
2022/05/17 11:44:00;;;;;;;1.17;0.88;;;;;;;20.25;42.10;100607.62;1772557;80;21008;-88
2022/05/17 11:46:45;;;;;;;3.40;1.17;;;;;;;20.25;36.55;100620.84;1799874;78;21071;-91
2022/05/17 11:49:20;;;;;;;1.40;1.02;;;;;;;19.70;35.72;100616.45;1797813;79;21037;-88
2022/05/17 11:52:03;;;;;;;2.00;0.90;;;;;;;19.28;38.36;100622.12;1799244;79;20931;-88
2022/05/17 11:54:45;;;;;;;0.90;0.80;;;;;;;19.08;38.88;100605.41;1789993;79;21311;-88
2022/05/17 11:57:27;;;;;;;1.52;0.80;;;;;;;19.03;39.97;100604.59;1772581;80;21051;-87
2022/05/17 12:00:05;;;;;;;2.65;1.10;;;;;;;18.90;38.67;100601.15;1776998;78;21548;-89
2022/05/17 12:02:51;;;;;;;0.90;0.90;;;;;;;18.98;39.73;100602.14;1803703;78;21030;-88
2022/05/17 12:05:47;;;;;;;1.62;0.85;;;;;;;19.10;38.53;100603.42;1798573;79;21150;-87
2022/05/17 12:08:39;;;;;;;1.32;0.93;;;;;;;19.03;37.76;100593.20;1729896;80;21181;-87
2022/05/17 12:11:34;;;;;;;3.90;1.00;;;;;;;19.06;40.52;100598.15;1755026;79;21008;-86
2022/05/17 12:14:18;;;;;;;2.55;1.12;;;;;;;19.40;41.07;100590.39;1783945;79;21044;-87